sensor_id;sensor_type;location;lat;lon;timestamp;temperature;humidity
69747;DHT22;57018;50.278;19.134;2023-07-08T00:01:20;14.60;99.90
69747;DHT22;57018;50.278;19.134;2023-07-08T00:03:50;14.60;99.90
69747;DHT22;57018;50.278;19.134;2023-07-08T00:06:22;14.60;99.90
69747;DHT22;57018;50.278;19.134;2023-07-08T00:08:52;14.50;99.90
69747;DHT22;57018;50.278;19.134;2023-07-08T00:11:22;14.50;99.90
69747;DHT22;57018;50.278;19.134;2023-07-08T00:13:52;14.50;99.90
69747;DHT22;57018;50.278;19.134;2023-07-08T00:16:23;14.40;99.90
69747;DHT22;57018;50.278;19.134;2023-07-08T00:18:53;14.50;99.90
69747;DHT22;57018;50.278;19.134;2023-07-08T00:21:23;14.40;99.90
69747;DHT22;57018;50.278;19.134;2023-07-08T00:23:53;14.40;99.90
69747;DHT22;57018;50.278;19.134;2023-07-08T00:26:26;14.40;99.90
69747;DHT22;57018;50.278;19.134;2023-07-08T00:28:58;14.40;99.90
69747;DHT22;57018;50.278;19.134;2023-07-08T00:31:27;14.30;99.90
69747;DHT22;57018;50.278;19.134;2023-07-08T00:33:59;14.20;99.90
69747;DHT22;57018;50.278;19.134;2023-07-08T00:36:37;14.20;99.90
69747;DHT22;57018;50.278;19.134;2023-07-08T00:39:14;14.20;99.90
69747;DHT22;57018;50.278;19.134;2023-07-08T00:41:45;14.20;99.90
69747;DHT22;57018;50.278;19.134;2023-07-08T00:44:15;14.20;99.90
69747;DHT22;57018;50.278;19.134;2023-07-08T00:46:50;14.10;99.90
69747;DHT22;57018;50.278;19.134;2023-07-08T00:49:34;14.10;99.90
69747;DHT22;57018;50.278;19.134;2023-07-08T00:52:24;14.10;99.90
69747;DHT22;57018;50.278;19.134;2023-07-08T00:54:56;14.10;99.90
69747;DHT22;57018;50.278;19.134;2023-07-08T00:57:30;14.10;99.90
69747;DHT22;57018;50.278;19.134;2023-07-08T01:00:03;14.00;99.90
69747;DHT22;57018;50.278;19.134;2023-07-08T01:02:38;14.00;99.90
69747;DHT22;57018;50.278;19.134;2023-07-08T01:05:13;14.00;99.90
69747;DHT22;57018;50.278;19.134;2023-07-08T01:07:46;13.90;99.90
69747;DHT22;57018;50.278;19.134;2023-07-08T01:10:22;13.90;99.90
69747;DHT22;57018;50.278;19.134;2023-07-08T01:12:57;13.80;99.90
69747;DHT22;57018;50.278;19.134;2023-07-08T01:15:35;13.90;99.90
69747;DHT22;57018;50.278;19.134;2023-07-08T01:18:06;13.80;99.90
69747;DHT22;57018;50.278;19.134;2023-07-08T01:20:35;13.80;99.90
69747;DHT22;57018;50.278;19.134;2023-07-08T01:23:05;13.80;99.90
69747;DHT22;57018;50.278;19.134;2023-07-08T01:25:35;13.80;99.90
69747;DHT22;57018;50.278;19.134;2023-07-08T01:28:06;13.80;99.90
69747;DHT22;57018;50.278;19.134;2023-07-08T01:30:36;13.80;99.90
69747;DHT22;57018;50.278;19.134;2023-07-08T01:33:07;13.80;99.90
69747;DHT22;57018;50.278;19.134;2023-07-08T01:35:41;13.60;99.90
69747;DHT22;57018;50.278;19.134;2023-07-08T01:38:13;13.70;99.90
69747;DHT22;57018;50.278;19.134;2023-07-08T01:40:52;13.70;99.90
69747;DHT22;57018;50.278;19.134;2023-07-08T01:43:22;13.80;99.90
69747;DHT22;57018;50.278;19.134;2023-07-08T01:45:52;13.80;99.90
69747;DHT22;57018;50.278;19.134;2023-07-08T01:48:24;13.70;99.90
69747;DHT22;57018;50.278;19.134;2023-07-08T01:50:59;13.70;99.90
69747;DHT22;57018;50.278;19.134;2023-07-08T01:53:35;13.60;99.90
69747;DHT22;57018;50.278;19.134;2023-07-08T01:56:06;13.60;99.90
69747;DHT22;57018;50.278;19.134;2023-07-08T01:58:36;13.70;99.90
69747;DHT22;57018;50.278;19.134;2023-07-08T02:01:07;13.60;99.90
69747;DHT22;57018;50.278;19.134;2023-07-08T02:03:37;13.40;99.90
69747;DHT22;57018;50.278;19.134;2023-07-08T02:06:10;13.40;99.90
69747;DHT22;57018;50.278;19.134;2023-07-08T02:08:40;13.50;99.90
69747;DHT22;57018;50.278;19.134;2023-07-08T02:11:10;13.50;99.90
69747;DHT22;57018;50.278;19.134;2023-07-08T02:13:40;13.50;99.90
69747;DHT22;57018;50.278;19.134;2023-07-08T02:16:09;13.50;99.90
69747;DHT22;57018;50.278;19.134;2023-07-08T02:18:39;13.50;99.90
69747;DHT22;57018;50.278;19.134;2023-07-08T02:21:09;13.50;99.90
69747;DHT22;57018;50.278;19.134;2023-07-08T02:23:41;13.40;99.90
69747;DHT22;57018;50.278;19.134;2023-07-08T02:26:11;13.40;99.90
69747;DHT22;57018;50.278;19.134;2023-07-08T02:28:40;13.40;99.90
69747;DHT22;57018;50.278;19.134;2023-07-08T02:31:10;13.20;99.90
69747;DHT22;57018;50.278;19.134;2023-07-08T02:33:40;13.20;99.90
69747;DHT22;57018;50.278;19.134;2023-07-08T02:36:10;13.20;99.90
69747;DHT22;57018;50.278;19.134;2023-07-08T02:38:40;13.30;99.90
69747;DHT22;57018;50.278;19.134;2023-07-08T02:41:09;13.30;99.90
69747;DHT22;57018;50.278;19.134;2023-07-08T02:43:40;13.30;99.90
69747;DHT22;57018;50.278;19.134;2023-07-08T02:46:10;13.20;99.90
69747;DHT22;57018;50.278;19.134;2023-07-08T02:48:40;13.40;99.90
69747;DHT22;57018;50.278;19.134;2023-07-08T02:51:10;13.50;99.90
69747;DHT22;57018;50.278;19.134;2023-07-08T02:53:39;13.50;99.90
69747;DHT22;57018;50.278;19.134;2023-07-08T02:56:09;13.50;99.90
69747;DHT22;57018;50.278;19.134;2023-07-08T02:58:39;13.50;99.90
69747;DHT22;57018;50.278;19.134;2023-07-08T03:01:10;13.60;99.90
69747;DHT22;57018;50.278;19.134;2023-07-08T03:03:45;13.70;99.90
69747;DHT22;57018;50.278;19.134;2023-07-08T03:06:16;13.70;99.90
69747;DHT22;57018;50.278;19.134;2023-07-08T03:08:46;13.70;99.90
69747;DHT22;57018;50.278;19.134;2023-07-08T03:11:15;13.70;99.90
69747;DHT22;57018;50.278;19.134;2023-07-08T03:13:45;13.80;99.90
69747;DHT22;57018;50.278;19.134;2023-07-08T03:16:15;14.00;99.90
69747;DHT22;57018;50.278;19.134;2023-07-08T03:18:45;14.20;99.90
69747;DHT22;57018;50.278;19.134;2023-07-08T03:21:19;14.40;99.90
69747;DHT22;57018;50.278;19.134;2023-07-08T03:23:49;14.90;99.90
69747;DHT22;57018;50.278;19.134;2023-07-08T03:26:21;15.30;99.90
69747;DHT22;57018;50.278;19.134;2023-07-08T03:28:51;15.60;99.90
69747;DHT22;57018;50.278;19.134;2023-07-08T03:31:21;15.90;99.90
69747;DHT22;57018;50.278;19.134;2023-07-08T03:33:51;16.30;99.90
69747;DHT22;57018;50.278;19.134;2023-07-08T03:36:21;16.60;99.90
69747;DHT22;57018;50.278;19.134;2023-07-08T03:38:53;17.10;99.90
69747;DHT22;57018;50.278;19.134;2023-07-08T03:41:24;17.40;99.90
69747;DHT22;57018;50.278;19.134;2023-07-08T03:43:54;17.80;99.90
69747;DHT22;57018;50.278;19.134;2023-07-08T03:46:23;18.10;99.90
69747;DHT22;57018;50.278;19.134;2023-07-08T03:48:53;18.50;99.90
69747;DHT22;57018;50.278;19.134;2023-07-08T03:51:25;18.90;99.90
69747;DHT22;57018;50.278;19.134;2023-07-08T03:53:57;19.10;99.90
69747;DHT22;57018;50.278;19.134;2023-07-08T03:56:27;19.40;99.90
69747;DHT22;57018;50.278;19.134;2023-07-08T03:58:57;19.60;98.50
69747;DHT22;57018;50.278;19.134;2023-07-08T04:01:27;19.70;95.90
69747;DHT22;57018;50.278;19.134;2023-07-08T04:03:58;20.00;92.80
69747;DHT22;57018;50.278;19.134;2023-07-08T04:06:29;20.20;91.60
69747;DHT22;57018;50.278;19.134;2023-07-08T04:09:00;20.30;89.40
69747;DHT22;57018;50.278;19.134;2023-07-08T04:11:30;20.60;89.00
69747;DHT22;57018;50.278;19.134;2023-07-08T04:14:00;20.80;87.70
69747;DHT22;57018;50.278;19.134;2023-07-08T04:16:35;21.00;83.80
69747;DHT22;57018;50.278;19.134;2023-07-08T04:19:10;21.20;82.60
69747;DHT22;57018;50.278;19.134;2023-07-08T04:21:43;21.60;81.10
69747;DHT22;57018;50.278;19.134;2023-07-08T04:24:15;21.60;78.90
69747;DHT22;57018;50.278;19.134;2023-07-08T04:26:47;21.80;78.40
69747;DHT22;57018;50.278;19.134;2023-07-08T04:29:19;21.90;77.00
69747;DHT22;57018;50.278;19.134;2023-07-08T04:31:49;22.00;76.00
69747;DHT22;57018;50.278;19.134;2023-07-08T04:34:19;22.20;75.60
69747;DHT22;57018;50.278;19.134;2023-07-08T04:36:49;22.30;75.10
69747;DHT22;57018;50.278;19.134;2023-07-08T04:39:19;22.40;74.20
69747;DHT22;57018;50.278;19.134;2023-07-08T04:41:49;22.50;73.50
69747;DHT22;57018;50.278;19.134;2023-07-08T04:44:19;22.80;72.80
69747;DHT22;57018;50.278;19.134;2023-07-08T04:46:51;22.90;72.60
69747;DHT22;57018;50.278;19.134;2023-07-08T04:49:23;23.10;72.40
69747;DHT22;57018;50.278;19.134;2023-07-08T04:51:53;23.20;71.50
69747;DHT22;57018;50.278;19.134;2023-07-08T04:54:23;23.40;69.60
69747;DHT22;57018;50.278;19.134;2023-07-08T04:56:52;23.50;69.80
69747;DHT22;57018;50.278;19.134;2023-07-08T04:59:25;23.50;69.00
69747;DHT22;57018;50.278;19.134;2023-07-08T05:01:54;23.70;67.20
69747;DHT22;57018;50.278;19.134;2023-07-08T05:04:24;23.60;66.90
69747;DHT22;57018;50.278;19.134;2023-07-08T05:06:54;23.70;66.60
69747;DHT22;57018;50.278;19.134;2023-07-08T05:09:24;23.70;67.20
69747;DHT22;57018;50.278;19.134;2023-07-08T05:11:55;23.70;66.30
69747;DHT22;57018;50.278;19.134;2023-07-08T05:14:24;23.70;66.50
69747;DHT22;57018;50.278;19.134;2023-07-08T05:16:56;23.80;66.60
69747;DHT22;57018;50.278;19.134;2023-07-08T05:19:26;23.80;66.00
69747;DHT22;57018;50.278;19.134;2023-07-08T05:21:56;23.80;66.90
69747;DHT22;57018;50.278;19.134;2023-07-08T05:24:26;23.80;67.20
69747;DHT22;57018;50.278;19.134;2023-07-08T05:26:56;23.70;67.70
69747;DHT22;57018;50.278;19.134;2023-07-08T05:29:27;23.60;70.30
69747;DHT22;57018;50.278;19.134;2023-07-08T05:31:57;23.50;71.70
69747;DHT22;57018;50.278;19.134;2023-07-08T05:34:26;23.40;72.90
69747;DHT22;57018;50.278;19.134;2023-07-08T05:36:56;23.40;73.20
69747;DHT22;57018;50.278;19.134;2023-07-08T05:39:26;23.40;73.10
69747;DHT22;57018;50.278;19.134;2023-07-08T05:41:56;23.40;72.80
69747;DHT22;57018;50.278;19.134;2023-07-08T05:44:26;23.50;72.40
69747;DHT22;57018;50.278;19.134;2023-07-08T05:46:56;23.40;73.00
69747;DHT22;57018;50.278;19.134;2023-07-08T05:49:26;23.60;71.80
69747;DHT22;57018;50.278;19.134;2023-07-08T05:51:56;23.60;71.70
69747;DHT22;57018;50.278;19.134;2023-07-08T05:54:26;23.50;72.30
69747;DHT22;57018;50.278;19.134;2023-07-08T05:56:55;23.70;69.90
69747;DHT22;57018;50.278;19.134;2023-07-08T05:59:25;23.70;70.10
69747;DHT22;57018;50.278;19.134;2023-07-08T06:01:55;23.80;69.90
69747;DHT22;57018;50.278;19.134;2023-07-08T06:04:25;23.80;71.00
69747;DHT22;57018;50.278;19.134;2023-07-08T06:06:55;23.90;71.10
69747;DHT22;57018;50.278;19.134;2023-07-08T06:09:25;24.00;70.00
69747;DHT22;57018;50.278;19.134;2023-07-08T06:11:55;24.10;68.50
69747;DHT22;57018;50.278;19.134;2023-07-08T06:14:24;24.20;66.60
69747;DHT22;57018;50.278;19.134;2023-07-08T06:16:54;24.30;66.60
69747;DHT22;57018;50.278;19.134;2023-07-08T06:19:24;24.40;66.80
69747;DHT22;57018;50.278;19.134;2023-07-08T06:21:54;24.60;65.70
69747;DHT22;57018;50.278;19.134;2023-07-08T06:24:24;24.70;64.90
69747;DHT22;57018;50.278;19.134;2023-07-08T06:26:54;24.70;64.40
69747;DHT22;57018;50.278;19.134;2023-07-08T06:29:25;24.70;64.80
69747;DHT22;57018;50.278;19.134;2023-07-08T06:31:55;24.70;65.30
69747;DHT22;57018;50.278;19.134;2023-07-08T06:34:23;24.80;65.00
69747;DHT22;57018;50.278;19.134;2023-07-08T06:36:53;24.80;64.00
69747;DHT22;57018;50.278;19.134;2023-07-08T06:39:23;24.80;62.00
69747;DHT22;57018;50.278;19.134;2023-07-08T06:41:53;24.80;63.80
69747;DHT22;57018;50.278;19.134;2023-07-08T06:44:23;24.70;63.00
69747;DHT22;57018;50.278;19.134;2023-07-08T06:46:54;24.70;64.50
69747;DHT22;57018;50.278;19.134;2023-07-08T06:49:24;24.80;63.80
69747;DHT22;57018;50.278;19.134;2023-07-08T06:51:53;24.80;63.60
69747;DHT22;57018;50.278;19.134;2023-07-08T06:54:25;24.80;64.30
69747;DHT22;57018;50.278;19.134;2023-07-08T06:56:56;24.80;63.10
69747;DHT22;57018;50.278;19.134;2023-07-08T06:59:26;24.70;62.70
69747;DHT22;57018;50.278;19.134;2023-07-08T07:01:57;24.70;62.60
69747;DHT22;57018;50.278;19.134;2023-07-08T07:04:27;24.70;63.30
69747;DHT22;57018;50.278;19.134;2023-07-08T07:06:59;24.80;60.80
69747;DHT22;57018;50.278;19.134;2023-07-08T07:09:29;24.70;61.90
69747;DHT22;57018;50.278;19.134;2023-07-08T07:11:59;24.80;61.20
69747;DHT22;57018;50.278;19.134;2023-07-08T07:14:28;24.80;59.50
69747;DHT22;57018;50.278;19.134;2023-07-08T07:16:58;24.70;63.00
69747;DHT22;57018;50.278;19.134;2023-07-08T07:19:28;24.70;61.60
69747;DHT22;57018;50.278;19.134;2023-07-08T07:21:58;24.70;60.80
69747;DHT22;57018;50.278;19.134;2023-07-08T07:24:28;24.60;57.90
69747;DHT22;57018;50.278;19.134;2023-07-08T07:26:58;24.60;58.70
69747;DHT22;57018;50.278;19.134;2023-07-08T07:29:28;24.60;57.10
69747;DHT22;57018;50.278;19.134;2023-07-08T07:31:57;24.60;57.00
69747;DHT22;57018;50.278;19.134;2023-07-08T07:34:27;24.50;56.50
69747;DHT22;57018;50.278;19.134;2023-07-08T07:36:57;24.50;57.50
69747;DHT22;57018;50.278;19.134;2023-07-08T07:39:27;24.40;56.70
69747;DHT22;57018;50.278;19.134;2023-07-08T07:41:57;24.40;56.20
69747;DHT22;57018;50.278;19.134;2023-07-08T07:44:27;24.50;54.90
69747;DHT22;57018;50.278;19.134;2023-07-08T07:46:57;24.50;54.90
69747;DHT22;57018;50.278;19.134;2023-07-08T07:49:27;24.50;57.10
69747;DHT22;57018;50.278;19.134;2023-07-08T07:51:57;24.50;55.90
69747;DHT22;57018;50.278;19.134;2023-07-08T07:54:27;24.50;54.30
69747;DHT22;57018;50.278;19.134;2023-07-08T07:56:57;24.50;53.20
69747;DHT22;57018;50.278;19.134;2023-07-08T07:59:27;24.60;52.60
69747;DHT22;57018;50.278;19.134;2023-07-08T08:01:57;24.50;52.30
69747;DHT22;57018;50.278;19.134;2023-07-08T08:04:27;24.50;52.20
69747;DHT22;57018;50.278;19.134;2023-07-08T08:06:57;24.40;51.40
69747;DHT22;57018;50.278;19.134;2023-07-08T08:09:27;24.40;53.10
69747;DHT22;57018;50.278;19.134;2023-07-08T08:11:56;24.40;52.40
69747;DHT22;57018;50.278;19.134;2023-07-08T08:14:26;24.40;50.50
69747;DHT22;57018;50.278;19.134;2023-07-08T08:16:56;24.30;49.60
69747;DHT22;57018;50.278;19.134;2023-07-08T08:19:26;24.40;48.90
69747;DHT22;57018;50.278;19.134;2023-07-08T08:21:56;24.40;50.30
69747;DHT22;57018;50.278;19.134;2023-07-08T08:24:26;24.40;49.90
69747;DHT22;57018;50.278;19.134;2023-07-08T08:26:55;24.40;48.30
69747;DHT22;57018;50.278;19.134;2023-07-08T08:29:25;24.40;47.60
69747;DHT22;57018;50.278;19.134;2023-07-08T08:31:55;24.40;46.90
69747;DHT22;57018;50.278;19.134;2023-07-08T08:34:25;24.40;45.00
69747;DHT22;57018;50.278;19.134;2023-07-08T08:36:55;24.50;46.40
69747;DHT22;57018;50.278;19.134;2023-07-08T08:39:25;24.50;45.70
69747;DHT22;57018;50.278;19.134;2023-07-08T08:41:58;24.50;44.10
69747;DHT22;57018;50.278;19.134;2023-07-08T08:44:33;24.60;44.60
69747;DHT22;57018;50.278;19.134;2023-07-08T08:47:11;24.70;42.00
69747;DHT22;57018;50.278;19.134;2023-07-08T08:49:54;24.70;40.50
69747;DHT22;57018;50.278;19.134;2023-07-08T08:52:25;24.70;41.50
69747;DHT22;57018;50.278;19.134;2023-07-08T08:54:55;24.70;42.90
69747;DHT22;57018;50.278;19.134;2023-07-08T08:57:35;24.70;41.90
69747;DHT22;57018;50.278;19.134;2023-07-08T09:00:10;24.70;40.40
69747;DHT22;57018;50.278;19.134;2023-07-08T09:02:47;24.80;39.90
69747;DHT22;57018;50.278;19.134;2023-07-08T09:05:21;24.90;38.40
69747;DHT22;57018;50.278;19.134;2023-07-08T09:08:12;24.90;39.20
69747;DHT22;57018;50.278;19.134;2023-07-08T09:10:45;24.90;39.30
69747;DHT22;57018;50.278;19.134;2023-07-08T09:13:24;25.00;38.60
69747;DHT22;57018;50.278;19.134;2023-07-08T09:16:02;24.90;39.30
69747;DHT22;57018;50.278;19.134;2023-07-08T09:18:38;24.90;39.20
69747;DHT22;57018;50.278;19.134;2023-07-08T09:21:22;24.90;40.50
69747;DHT22;57018;50.278;19.134;2023-07-08T09:23:59;24.70;40.40
69747;DHT22;57018;50.278;19.134;2023-07-08T09:26:32;24.60;40.70
69747;DHT22;57018;50.278;19.134;2023-07-08T09:29:04;24.60;39.60
69747;DHT22;57018;50.278;19.134;2023-07-08T09:31:40;24.60;38.90
69747;DHT22;57018;50.278;19.134;2023-07-08T09:34:13;24.70;41.50
69747;DHT22;57018;50.278;19.134;2023-07-08T09:36:46;24.80;41.00
69747;DHT22;57018;50.278;19.134;2023-07-08T09:39:18;24.90;40.70
69747;DHT22;57018;50.278;19.134;2023-07-08T09:41:49;25.00;41.00
69747;DHT22;57018;50.278;19.134;2023-07-08T09:44:24;25.00;40.20
69747;DHT22;57018;50.278;19.134;2023-07-08T09:46:58;25.10;38.60
69747;DHT22;57018;50.278;19.134;2023-07-08T09:49:33;25.20;38.70
69747;DHT22;57018;50.278;19.134;2023-07-08T09:52:04;25.10;38.30
69747;DHT22;57018;50.278;19.134;2023-07-08T09:54:36;25.10;38.50
69747;DHT22;57018;50.278;19.134;2023-07-08T09:57:11;25.20;38.90
69747;DHT22;57018;50.278;19.134;2023-07-08T09:59:46;25.10;39.60
69747;DHT22;57018;50.278;19.134;2023-07-08T10:02:32;25.20;39.60
69747;DHT22;57018;50.278;19.134;2023-07-08T10:05:17;25.30;39.10
69747;DHT22;57018;50.278;19.134;2023-07-08T10:07:49;25.30;39.80
69747;DHT22;57018;50.278;19.134;2023-07-08T10:10:28;25.50;40.10
69747;DHT22;57018;50.278;19.134;2023-07-08T10:13:01;25.60;39.20
69747;DHT22;57018;50.278;19.134;2023-07-08T10:15:36;25.70;38.90
69747;DHT22;57018;50.278;19.134;2023-07-08T10:18:13;25.80;37.30
69747;DHT22;57018;50.278;19.134;2023-07-08T10:20:54;25.80;37.60
69747;DHT22;57018;50.278;19.134;2023-07-08T10:23:32;25.80;36.60
69747;DHT22;57018;50.278;19.134;2023-07-08T10:26:10;25.80;36.50
69747;DHT22;57018;50.278;19.134;2023-07-08T10:28:47;25.80;37.10
69747;DHT22;57018;50.278;19.134;2023-07-08T10:31:26;25.70;35.80
69747;DHT22;57018;50.278;19.134;2023-07-08T10:34:18;25.80;36.70
69747;DHT22;57018;50.278;19.134;2023-07-08T10:36:57;25.80;36.70
69747;DHT22;57018;50.278;19.134;2023-07-08T10:39:53;25.80;37.30
69747;DHT22;57018;50.278;19.134;2023-07-08T10:42:38;25.80;34.80
69747;DHT22;57018;50.278;19.134;2023-07-08T10:45:15;25.90;34.80
69747;DHT22;57018;50.278;19.134;2023-07-08T10:47:56;25.90;35.10
69747;DHT22;57018;50.278;19.134;2023-07-08T10:50:45;25.90;34.00
69747;DHT22;57018;50.278;19.134;2023-07-08T10:53:34;25.90;34.50
69747;DHT22;57018;50.278;19.134;2023-07-08T10:56:11;25.90;34.50
69747;DHT22;57018;50.278;19.134;2023-07-08T11:01:48;25.80;34.20
69747;DHT22;57018;50.278;19.134;2023-07-08T11:04:45;25.90;35.00
69747;DHT22;57018;50.278;19.134;2023-07-08T11:07:29;25.90;34.80
69747;DHT22;57018;50.278;19.134;2023-07-08T11:10:02;26.00;35.90
69747;DHT22;57018;50.278;19.134;2023-07-08T11:12:38;26.00;36.90
69747;DHT22;57018;50.278;19.134;2023-07-08T11:15:18;26.10;37.10
69747;DHT22;57018;50.278;19.134;2023-07-08T11:17:55;26.10;36.80
69747;DHT22;57018;50.278;19.134;2023-07-08T11:20:39;26.20;35.90
69747;DHT22;57018;50.278;19.134;2023-07-08T11:23:19;26.30;35.90
69747;DHT22;57018;50.278;19.134;2023-07-08T11:25:59;26.40;35.90
69747;DHT22;57018;50.278;19.134;2023-07-08T11:28:32;26.40;36.30
69747;DHT22;57018;50.278;19.134;2023-07-08T11:31:03;26.40;34.90
69747;DHT22;57018;50.278;19.134;2023-07-08T11:33:35;26.50;35.20
69747;DHT22;57018;50.278;19.134;2023-07-08T11:36:05;26.50;35.00
69747;DHT22;57018;50.278;19.134;2023-07-08T11:38:36;26.50;35.00
69747;DHT22;57018;50.278;19.134;2023-07-08T11:41:18;26.60;35.50
69747;DHT22;57018;50.278;19.134;2023-07-08T11:43:51;26.60;34.30
69747;DHT22;57018;50.278;19.134;2023-07-08T11:46:24;26.50;34.10
69747;DHT22;57018;50.278;19.134;2023-07-08T11:49:01;26.60;34.50
69747;DHT22;57018;50.278;19.134;2023-07-08T11:51:34;26.60;33.80
69747;DHT22;57018;50.278;19.134;2023-07-08T11:54:13;26.60;33.50
69747;DHT22;57018;50.278;19.134;2023-07-08T11:56:57;26.60;32.90
69747;DHT22;57018;50.278;19.134;2023-07-08T11:59:29;26.60;32.70
69747;DHT22;57018;50.278;19.134;2023-07-08T12:02:09;26.50;33.60
69747;DHT22;57018;50.278;19.134;2023-07-08T12:04:57;26.60;33.50
69747;DHT22;57018;50.278;19.134;2023-07-08T12:07:37;26.50;33.10
69747;DHT22;57018;50.278;19.134;2023-07-08T12:10:15;26.50;32.30
69747;DHT22;57018;50.278;19.134;2023-07-08T12:12:46;26.60;30.40
69747;DHT22;57018;50.278;19.134;2023-07-08T12:15:21;26.60;30.40
69747;DHT22;57018;50.278;19.134;2023-07-08T12:17:55;26.60;30.70
69747;DHT22;57018;50.278;19.134;2023-07-08T12:20:28;26.60;30.40
69747;DHT22;57018;50.278;19.134;2023-07-08T12:22:59;26.60;30.00
69747;DHT22;57018;50.278;19.134;2023-07-08T12:25:32;26.60;30.10
69747;DHT22;57018;50.278;19.134;2023-07-08T12:28:04;26.60;30.70
69747;DHT22;57018;50.278;19.134;2023-07-08T12:30:34;26.60;30.50
69747;DHT22;57018;50.278;19.134;2023-07-08T12:33:10;26.70;29.90
69747;DHT22;57018;50.278;19.134;2023-07-08T12:35:43;26.70;29.90
69747;DHT22;57018;50.278;19.134;2023-07-08T12:38:20;26.70;29.80
69747;DHT22;57018;50.278;19.134;2023-07-08T12:40:51;26.70;29.50
69747;DHT22;57018;50.278;19.134;2023-07-08T12:43:21;26.80;29.80
69747;DHT22;57018;50.278;19.134;2023-07-08T12:45:51;26.80;29.70
69747;DHT22;57018;50.278;19.134;2023-07-08T12:48:21;26.70;29.60
69747;DHT22;57018;50.278;19.134;2023-07-08T12:50:51;26.80;30.20
69747;DHT22;57018;50.278;19.134;2023-07-08T12:53:21;26.90;29.60
69747;DHT22;57018;50.278;19.134;2023-07-08T12:55:54;26.90;29.50
69747;DHT22;57018;50.278;19.134;2023-07-08T12:58:28;27.00;29.90
69747;DHT22;57018;50.278;19.134;2023-07-08T13:01:01;27.00;29.90
69747;DHT22;57018;50.278;19.134;2023-07-08T13:03:35;27.00;30.80
69747;DHT22;57018;50.278;19.134;2023-07-08T13:06:09;27.10;30.80
69747;DHT22;57018;50.278;19.134;2023-07-08T13:08:40;27.10;31.10
69747;DHT22;57018;50.278;19.134;2023-07-08T13:11:15;27.10;30.80
69747;DHT22;57018;50.278;19.134;2023-07-08T13:13:49;27.00;30.00
69747;DHT22;57018;50.278;19.134;2023-07-08T13:16:21;27.00;30.10
69747;DHT22;57018;50.278;19.134;2023-07-08T13:18:52;27.00;29.70
69747;DHT22;57018;50.278;19.134;2023-07-08T13:21:24;27.10;30.10
69747;DHT22;57018;50.278;19.134;2023-07-08T13:24:02;27.00;30.10
69747;DHT22;57018;50.278;19.134;2023-07-08T13:26:36;26.90;30.00
69747;DHT22;57018;50.278;19.134;2023-07-08T13:29:13;26.90;29.20
69747;DHT22;57018;50.278;19.134;2023-07-08T13:31:46;26.90;29.50
69747;DHT22;57018;50.278;19.134;2023-07-08T13:34:19;26.90;29.70
69747;DHT22;57018;50.278;19.134;2023-07-08T13:36:52;26.90;29.40
69747;DHT22;57018;50.278;19.134;2023-07-08T13:39:27;27.00;29.40
69747;DHT22;57018;50.278;19.134;2023-07-08T13:41:57;27.00;29.60
69747;DHT22;57018;50.278;19.134;2023-07-08T13:44:29;27.10;29.10
69747;DHT22;57018;50.278;19.134;2023-07-08T13:47:00;27.10;28.60
69747;DHT22;57018;50.278;19.134;2023-07-08T13:49:42;27.10;29.30
69747;DHT22;57018;50.278;19.134;2023-07-08T13:52:19;27.20;29.60
69747;DHT22;57018;50.278;19.134;2023-07-08T13:54:52;27.20;29.60
69747;DHT22;57018;50.278;19.134;2023-07-08T13:57:28;27.10;28.90
69747;DHT22;57018;50.278;19.134;2023-07-08T13:59:58;27.20;28.60
69747;DHT22;57018;50.278;19.134;2023-07-08T14:02:31;27.10;28.50
69747;DHT22;57018;50.278;19.134;2023-07-08T14:05:01;27.20;28.30
69747;DHT22;57018;50.278;19.134;2023-07-08T14:07:34;27.10;28.30
69747;DHT22;57018;50.278;19.134;2023-07-08T14:10:11;27.20;28.60
69747;DHT22;57018;50.278;19.134;2023-07-08T14:12:41;27.20;27.90
69747;DHT22;57018;50.278;19.134;2023-07-08T14:15:12;27.30;27.60
69747;DHT22;57018;50.278;19.134;2023-07-08T14:17:41;27.30;27.50
69747;DHT22;57018;50.278;19.134;2023-07-08T14:20:16;27.20;27.50
69747;DHT22;57018;50.278;19.134;2023-07-08T14:22:47;27.20;27.60
69747;DHT22;57018;50.278;19.134;2023-07-08T14:25:18;27.10;27.40
69747;DHT22;57018;50.278;19.134;2023-07-08T14:27:49;27.10;26.60
69747;DHT22;57018;50.278;19.134;2023-07-08T14:30:19;27.20;27.10
69747;DHT22;57018;50.278;19.134;2023-07-08T14:32:51;27.20;28.30
69747;DHT22;57018;50.278;19.134;2023-07-08T14:35:24;27.10;28.30
69747;DHT22;57018;50.278;19.134;2023-07-08T14:37:55;27.20;27.90
69747;DHT22;57018;50.278;19.134;2023-07-08T14:40:31;27.20;28.10
69747;DHT22;57018;50.278;19.134;2023-07-08T14:43:03;27.20;27.70
69747;DHT22;57018;50.278;19.134;2023-07-08T14:45:33;27.20;28.10
69747;DHT22;57018;50.278;19.134;2023-07-08T14:48:09;27.20;28.70
69747;DHT22;57018;50.278;19.134;2023-07-08T14:50:43;27.20;28.90
69747;DHT22;57018;50.278;19.134;2023-07-08T14:53:14;27.20;29.00
69747;DHT22;57018;50.278;19.134;2023-07-08T14:55:46;27.30;29.20
69747;DHT22;57018;50.278;19.134;2023-07-08T14:58:22;27.20;28.40
69747;DHT22;57018;50.278;19.134;2023-07-08T15:00:56;27.30;28.20
69747;DHT22;57018;50.278;19.134;2023-07-08T15:03:27;27.30;28.50
69747;DHT22;57018;50.278;19.134;2023-07-08T15:05:57;27.30;28.90
69747;DHT22;57018;50.278;19.134;2023-07-08T15:08:26;27.20;28.60
69747;DHT22;57018;50.278;19.134;2023-07-08T15:10:57;27.30;27.70
69747;DHT22;57018;50.278;19.134;2023-07-08T15:13:30;27.30;27.10
69747;DHT22;57018;50.278;19.134;2023-07-08T15:16:01;27.30;27.60
69747;DHT22;57018;50.278;19.134;2023-07-08T15:18:31;27.20;26.90
69747;DHT22;57018;50.278;19.134;2023-07-08T15:21:02;27.20;27.00
69747;DHT22;57018;50.278;19.134;2023-07-08T15:23:32;27.20;26.90
69747;DHT22;57018;50.278;19.134;2023-07-08T15:26:02;27.30;27.30
69747;DHT22;57018;50.278;19.134;2023-07-08T15:28:42;27.20;27.40
69747;DHT22;57018;50.278;19.134;2023-07-08T15:31:17;27.20;27.80
69747;DHT22;57018;50.278;19.134;2023-07-08T15:33:48;27.10;28.70
69747;DHT22;57018;50.278;19.134;2023-07-08T15:36:18;27.20;28.70
69747;DHT22;57018;50.278;19.134;2023-07-08T15:38:48;27.20;29.30
69747;DHT22;57018;50.278;19.134;2023-07-08T15:41:21;27.20;29.40
69747;DHT22;57018;50.278;19.134;2023-07-08T15:43:54;27.10;28.90
69747;DHT22;57018;50.278;19.134;2023-07-08T15:46:27;27.10;28.50
69747;DHT22;57018;50.278;19.134;2023-07-08T15:49:00;27.00;28.20
69747;DHT22;57018;50.278;19.134;2023-07-08T15:51:28;27.10;28.70